sensor_id;sensor_type;location;lat;lon;timestamp;pressure;altitude;pressure_sealevel;temperature;humidity
50310;BME280;36207;51.850;21.698;2023-02-15T00:01:51;101623.39;;;4.63;82.31
50310;BME280;36207;51.850;21.698;2023-02-15T00:04:21;101625.45;;;4.61;82.38
50310;BME280;36207;51.850;21.698;2023-02-15T00:06:48;101624.96;;;4.58;82.16
50310;BME280;36207;51.850;21.698;2023-02-15T00:09:14;101623.45;;;4.57;82.14
50310;BME280;36207;51.850;21.698;2023-02-15T00:11:40;101619.38;;;4.57;82.13
50310;BME280;36207;51.850;21.698;2023-02-15T00:16:38;101618.48;;;4.57;82.33
50310;BME280;36207;51.850;21.698;2023-02-15T00:19:04;101619.51;;;4.58;82.25
50310;BME280;36207;51.850;21.698;2023-02-15T00:21:32;101615.89;;;4.56;82.21
50310;BME280;36207;51.850;21.698;2023-02-15T00:24:00;101616.69;;;4.52;82.22
50310;BME280;36207;51.850;21.698;2023-02-15T00:26:26;101615.40;;;4.50;82.14
50310;BME280;36207;51.850;21.698;2023-02-15T00:28:53;101612.33;;;4.52;82.16
50310;BME280;36207;51.850;21.698;2023-02-15T00:31:20;101615.25;;;4.53;82.30
50310;BME280;36207;51.850;21.698;2023-02-15T00:33:46;101612.27;;;4.52;82.27
50310;BME280;36207;51.850;21.698;2023-02-15T00:36:13;101613.45;;;4.53;82.14
50310;BME280;36207;51.850;21.698;2023-02-15T00:38:39;101613.95;;;4.51;82.02
50310;BME280;36207;51.850;21.698;2023-02-15T00:41:06;101611.49;;;4.51;82.17
50310;BME280;36207;51.850;21.698;2023-02-15T00:43:34;101612.64;;;4.52;82.17
50310;BME280;36207;51.850;21.698;2023-02-15T00:46:01;101608.70;;;4.56;82.14
50310;BME280;36207;51.850;21.698;2023-02-15T00:48:28;101610.49;;;4.55;82.06
50310;BME280;36207;51.850;21.698;2023-02-15T00:50:56;101606.46;;;4.52;82.20
50310;BME280;36207;51.850;21.698;2023-02-15T00:53:22;101603.05;;;4.51;82.12
50310;BME280;36207;51.850;21.698;2023-02-15T00:55:48;101602.34;;;4.51;82.20
50310;BME280;36207;51.850;21.698;2023-02-15T00:58:15;101601.39;;;4.51;82.19
50310;BME280;36207;51.850;21.698;2023-02-15T01:00:43;101599.10;;;4.52;82.15
50310;BME280;36207;51.850;21.698;2023-02-15T01:03:10;101598.34;;;4.50;82.08
50310;BME280;36207;51.850;21.698;2023-02-15T01:05:36;101595.27;;;4.48;82.10
50310;BME280;36207;51.850;21.698;2023-02-15T01:08:02;101595.32;;;4.44;82.12
50310;BME280;36207;51.850;21.698;2023-02-15T01:10:29;101594.70;;;4.40;82.17
50310;BME280;36207;51.850;21.698;2023-02-15T01:12:55;101593.42;;;4.41;82.12
50310;BME280;36207;51.850;21.698;2023-02-15T01:15:22;101590.56;;;4.44;82.21
50310;BME280;36207;51.850;21.698;2023-02-15T01:17:49;101589.23;;;4.46;82.24
50310;BME280;36207;51.850;21.698;2023-02-15T01:20:24;101586.59;;;4.46;82.18
50310;BME280;36207;51.850;21.698;2023-02-15T01:22:50;101585.08;;;4.44;82.21
50310;BME280;36207;51.850;21.698;2023-02-15T01:25:18;101580.45;;;4.43;82.15
50310;BME280;36207;51.850;21.698;2023-02-15T01:27:45;101575.99;;;4.43;82.29
50310;BME280;36207;51.850;21.698;2023-02-15T01:30:12;101576.08;;;4.48;82.26
50310;BME280;36207;51.850;21.698;2023-02-15T01:32:39;101570.63;;;4.52;82.39
50310;BME280;36207;51.850;21.698;2023-02-15T01:35:06;101572.34;;;4.59;82.39
50310;BME280;36207;51.850;21.698;2023-02-15T01:37:33;101570.03;;;4.61;82.56
50310;BME280;36207;51.850;21.698;2023-02-15T01:40:00;101567.41;;;4.61;82.36
50310;BME280;36207;51.850;21.698;2023-02-15T01:42:28;101566.93;;;4.60;82.38
50310;BME280;36207;51.850;21.698;2023-02-15T01:45:00;101560.09;;;4.60;82.27
50310;BME280;36207;51.850;21.698;2023-02-15T01:47:44;101557.43;;;4.60;82.29
50310;BME280;36207;51.850;21.698;2023-02-15T01:52:39;101561.88;;;4.54;82.26
50310;BME280;36207;51.850;21.698;2023-02-15T01:55:06;101561.63;;;4.52;82.12
50310;BME280;36207;51.850;21.698;2023-02-15T01:57:33;101561.05;;;4.48;82.12
50310;BME280;36207;51.850;21.698;2023-02-15T02:00:02;101562.34;;;4.44;82.06
50310;BME280;36207;51.850;21.698;2023-02-15T02:02:29;101558.40;;;4.45;82.07
50310;BME280;36207;51.850;21.698;2023-02-15T02:05:00;101557.09;;;4.41;82.00
50310;BME280;36207;51.850;21.698;2023-02-15T02:07:36;101554.45;;;4.36;81.96
50310;BME280;36207;51.850;21.698;2023-02-15T02:10:05;101559.33;;;4.31;82.05
50310;BME280;36207;51.850;21.698;2023-02-15T02:12:32;101559.20;;;4.22;81.89
50310;BME280;36207;51.850;21.698;2023-02-15T02:14:59;101560.48;;;4.16;81.99
50310;BME280;36207;51.850;21.698;2023-02-15T02:23:08;101557.64;;;4.09;82.26
50310;BME280;36207;51.850;21.698;2023-02-15T02:36:52;101552.41;;;4.08;82.33
50310;BME280;36207;51.850;21.698;2023-02-15T02:45:03;101544.41;;;4.06;82.28
50310;BME280;36207;51.850;21.698;2023-02-15T02:47:52;101547.84;;;4.05;82.18
50310;BME280;36207;51.850;21.698;2023-02-15T02:50:25;101547.56;;;4.01;82.25
50310;BME280;36207;51.850;21.698;2023-02-15T02:52:53;101547.55;;;3.98;82.28
50310;BME280;36207;51.850;21.698;2023-02-15T02:55:50;101547.02;;;3.95;82.22
50310;BME280;36207;51.850;21.698;2023-02-15T02:58:21;101543.01;;;3.90;82.23
50310;BME280;36207;51.850;21.698;2023-02-15T03:00:55;101543.96;;;3.86;82.14
50310;BME280;36207;51.850;21.698;2023-02-15T03:05:59;101539.65;;;3.90;82.44
50310;BME280;36207;51.850;21.698;2023-02-15T03:08:31;101542.21;;;3.91;82.46
50310;BME280;36207;51.850;21.698;2023-02-15T03:11:00;101540.27;;;3.91;82.48
50310;BME280;36207;51.850;21.698;2023-02-15T03:13:27;101543.21;;;3.89;82.48
50310;BME280;36207;51.850;21.698;2023-02-15T03:15:54;101542.92;;;3.88;82.48
50310;BME280;36207;51.850;21.698;2023-02-15T03:18:46;101541.97;;;3.89;82.64
50310;BME280;36207;51.850;21.698;2023-02-15T03:21:25;101538.40;;;3.93;82.62
50310;BME280;36207;51.850;21.698;2023-02-15T03:23:59;101534.68;;;3.96;82.67
50310;BME280;36207;51.850;21.698;2023-02-15T03:26:26;101536.09;;;3.98;82.73
50310;BME280;36207;51.850;21.698;2023-02-15T03:28:56;101533.69;;;4.00;82.64
50310;BME280;36207;51.850;21.698;2023-02-15T03:31:26;101531.75;;;4.06;82.84
50310;BME280;36207;51.850;21.698;2023-02-15T03:34:02;101532.16;;;4.08;82.68
50310;BME280;36207;51.850;21.698;2023-02-15T03:42:19;101531.11;;;3.91;82.50
50310;BME280;36207;51.850;21.698;2023-02-15T03:47:28;101532.44;;;3.87;82.70
50310;BME280;36207;51.850;21.698;2023-02-15T03:50:05;101533.71;;;3.86;82.69
50310;BME280;36207;51.850;21.698;2023-02-15T03:52:54;101533.45;;;3.85;82.73
50310;BME280;36207;51.850;21.698;2023-02-15T03:55:24;101531.51;;;3.85;82.70
50310;BME280;36207;51.850;21.698;2023-02-15T03:57:50;101530.70;;;3.86;82.80
50310;BME280;36207;51.850;21.698;2023-02-15T04:00:37;101529.23;;;3.85;82.62
50310;BME280;36207;51.850;21.698;2023-02-15T04:03:35;101527.38;;;3.84;82.72
50310;BME280;36207;51.850;21.698;2023-02-15T04:06:03;101526.80;;;3.78;82.65
50310;BME280;36207;51.850;21.698;2023-02-15T04:08:29;101523.59;;;3.74;82.85
50310;BME280;36207;51.850;21.698;2023-02-15T04:11:13;101522.38;;;3.74;82.85
50310;BME280;36207;51.850;21.698;2023-02-15T04:13:39;101520.17;;;3.72;82.77
50310;BME280;36207;51.850;21.698;2023-02-15T04:16:05;101521.48;;;3.74;82.84
50310;BME280;36207;51.850;21.698;2023-02-15T04:18:39;101523.23;;;3.74;82.96
50310;BME280;36207;51.850;21.698;2023-02-15T04:21:27;101521.42;;;3.72;82.88
50310;BME280;36207;51.850;21.698;2023-02-15T04:24:13;101517.42;;;3.71;82.89
50310;BME280;36207;51.850;21.698;2023-02-15T04:26:59;101516.61;;;3.70;82.71
50310;BME280;36207;51.850;21.698;2023-02-15T04:29:26;101513.39;;;3.71;82.92
50310;BME280;36207;51.850;21.698;2023-02-15T04:31:53;101515.95;;;3.72;82.94
50310;BME280;36207;51.850;21.698;2023-02-15T04:34:20;101517.08;;;3.71;82.89
50310;BME280;36207;51.850;21.698;2023-02-15T04:36:46;101517.52;;;3.75;83.19
50310;BME280;36207;51.850;21.698;2023-02-15T04:39:31;101519.23;;;3.76;83.44
50310;BME280;36207;51.850;21.698;2023-02-15T04:41:57;101517.75;;;3.72;83.38
50310;BME280;36207;51.850;21.698;2023-02-15T04:44:23;101522.73;;;3.68;83.62
50310;BME280;36207;51.850;21.698;2023-02-15T04:46:49;101524.10;;;3.66;83.43
50310;BME280;36207;51.850;21.698;2023-02-15T04:49:15;101525.95;;;3.65;83.46
50310;BME280;36207;51.850;21.698;2023-02-15T04:51:41;101524.66;;;3.65;83.16
50310;BME280;36207;51.850;21.698;2023-02-15T04:54:07;101524.56;;;3.70;83.13
50310;BME280;36207;51.850;21.698;2023-02-15T04:56:33;101525.54;;;3.73;83.32
50310;BME280;36207;51.850;21.698;2023-02-15T04:59:00;101523.35;;;3.77;83.32
50310;BME280;36207;51.850;21.698;2023-02-15T05:01:26;101525.61;;;3.77;83.10
50310;BME280;36207;51.850;21.698;2023-02-15T05:03:52;101528.79;;;3.75;83.09
50310;BME280;36207;51.850;21.698;2023-02-15T05:06:18;101531.85;;;3.77;83.11
50310;BME280;36207;51.850;21.698;2023-02-15T05:08:44;101528.56;;;3.82;83.19
50310;BME280;36207;51.850;21.698;2023-02-15T05:11:10;101528.41;;;3.84;83.23
50310;BME280;36207;51.850;21.698;2023-02-15T05:13:37;101532.10;;;3.84;83.20
50310;BME280;36207;51.850;21.698;2023-02-15T05:16:04;101532.73;;;3.82;83.13
50310;BME280;36207;51.850;21.698;2023-02-15T05:18:30;101535.92;;;3.79;83.08
50310;BME280;36207;51.850;21.698;2023-02-15T05:20:55;101537.56;;;3.78;83.18
50310;BME280;36207;51.850;21.698;2023-02-15T05:23:21;101535.37;;;3.79;83.31
50310;BME280;36207;51.850;21.698;2023-02-15T05:25:48;101533.20;;;3.80;83.34
50310;BME280;36207;51.850;21.698;2023-02-15T05:28:34;101531.94;;;3.78;83.19
50310;BME280;36207;51.850;21.698;2023-02-15T05:31:07;101536.55;;;3.75;83.16
50310;BME280;36207;51.850;21.698;2023-02-15T05:33:35;101536.94;;;3.72;83.20
50310;BME280;36207;51.850;21.698;2023-02-15T05:36:02;101537.90;;;3.70;83.25
50310;BME280;36207;51.850;21.698;2023-02-15T05:38:28;101543.02;;;3.70;83.22
50310;BME280;36207;51.850;21.698;2023-02-15T05:40:54;101539.98;;;3.71;83.28
50310;BME280;36207;51.850;21.698;2023-02-15T05:43:21;101543.98;;;3.72;83.26
50310;BME280;36207;51.850;21.698;2023-02-15T05:45:52;101541.27;;;3.70;83.16
50310;BME280;36207;51.850;21.698;2023-02-15T05:48:24;101541.39;;;3.68;83.13
50310;BME280;36207;51.850;21.698;2023-02-15T05:51:16;101541.54;;;3.69;83.27
50310;BME280;36207;51.850;21.698;2023-02-15T05:53:42;101540.45;;;3.69;83.30
50310;BME280;36207;51.850;21.698;2023-02-15T05:56:09;101541.25;;;3.70;83.21
50310;BME280;36207;51.850;21.698;2023-02-15T05:58:40;101538.52;;;3.72;83.31
50310;BME280;36207;51.850;21.698;2023-02-15T06:03:34;101539.16;;;3.67;83.26
50310;BME280;36207;51.850;21.698;2023-02-15T06:05:59;101539.08;;;3.68;83.29
50310;BME280;36207;51.850;21.698;2023-02-15T06:08:25;101537.06;;;3.75;83.43
50310;BME280;36207;51.850;21.698;2023-02-15T06:10:51;101536.70;;;3.80;83.37
50310;BME280;36207;51.850;21.698;2023-02-15T06:13:17;101539.55;;;3.83;83.34
50310;BME280;36207;51.850;21.698;2023-02-15T06:15:43;101542.67;;;3.84;83.31
50310;BME280;36207;51.850;21.698;2023-02-15T06:18:09;101543.14;;;3.85;83.25
50310;BME280;36207;51.850;21.698;2023-02-15T06:20:35;101547.41;;;3.84;83.22
50310;BME280;36207;51.850;21.698;2023-02-15T06:23:01;101552.29;;;3.85;83.28
50310;BME280;36207;51.850;21.698;2023-02-15T06:25:30;101554.89;;;3.88;83.28
50310;BME280;36207;51.850;21.698;2023-02-15T06:27:56;101551.44;;;3.93;83.41
50310;BME280;36207;51.850;21.698;2023-02-15T06:30:21;101552.52;;;3.95;83.40
50310;BME280;36207;51.850;21.698;2023-02-15T06:32:47;101558.48;;;3.98;83.46
50310;BME280;36207;51.850;21.698;2023-02-15T06:35:13;101558.52;;;3.95;83.41
50310;BME280;36207;51.850;21.698;2023-02-15T06:37:39;101559.38;;;3.90;83.30
50310;BME280;36207;51.850;21.698;2023-02-15T06:40:06;101555.66;;;3.90;83.37
50310;BME280;36207;51.850;21.698;2023-02-15T06:42:33;101556.13;;;3.94;83.37
50310;BME280;36207;51.850;21.698;2023-02-15T06:44:59;101555.83;;;3.96;83.50
50310;BME280;36207;51.850;21.698;2023-02-15T06:47:26;101560.19;;;3.96;83.47
50310;BME280;36207;51.850;21.698;2023-02-15T06:49:51;101558.31;;;3.96;83.46
50310;BME280;36207;51.850;21.698;2023-02-15T06:52:17;101559.08;;;3.94;83.35
50310;BME280;36207;51.850;21.698;2023-02-15T06:54:43;101557.27;;;3.92;83.27
50310;BME280;36207;51.850;21.698;2023-02-15T06:57:09;101557.20;;;3.88;83.32
50310;BME280;36207;51.850;21.698;2023-02-15T06:59:35;101557.64;;;3.90;83.38
50310;BME280;36207;51.850;21.698;2023-02-15T07:02:01;101553.88;;;3.90;83.33
50310;BME280;36207;51.850;21.698;2023-02-15T07:04:27;101554.06;;;3.90;83.23
50310;BME280;36207;51.850;21.698;2023-02-15T07:06:55;101552.23;;;3.91;83.23
50310;BME280;36207;51.850;21.698;2023-02-15T07:09:21;101549.69;;;3.90;83.13
50310;BME280;36207;51.850;21.698;2023-02-15T07:11:48;101551.41;;;3.90;83.43
50310;BME280;36207;51.850;21.698;2023-02-15T07:14:32;101552.46;;;3.93;83.46
50310;BME280;36207;51.850;21.698;2023-02-15T07:16:58;101545.63;;;3.93;83.39
50310;BME280;36207;51.850;21.698;2023-02-15T07:19:24;101549.91;;;3.95;83.44
50310;BME280;36207;51.850;21.698;2023-02-15T07:21:50;101546.27;;;3.99;83.42
50310;BME280;36207;51.850;21.698;2023-02-15T07:24:16;101548.46;;;4.00;83.42
50310;BME280;36207;51.850;21.698;2023-02-15T07:26:42;101548.82;;;3.98;83.23
50310;BME280;36207;51.850;21.698;2023-02-15T07:29:08;101549.48;;;3.98;83.29
50310;BME280;36207;51.850;21.698;2023-02-15T07:31:34;101548.38;;;4.02;83.41
50310;BME280;36207;51.850;21.698;2023-02-15T07:34:00;101548.80;;;4.03;83.44
50310;BME280;36207;51.850;21.698;2023-02-15T07:36:26;101548.14;;;4.00;83.26
50310;BME280;36207;51.850;21.698;2023-02-15T07:38:52;101547.45;;;3.94;83.30
50310;BME280;36207;51.850;21.698;2023-02-15T07:41:18;101543.35;;;3.92;83.34
50310;BME280;36207;51.850;21.698;2023-02-15T07:43:45;101542.44;;;3.90;83.45
50310;BME280;36207;51.850;21.698;2023-02-15T07:46:13;101540.52;;;3.87;83.40
50310;BME280;36207;51.850;21.698;2023-02-15T07:48:41;101533.44;;;3.85;83.37
50310;BME280;36207;51.850;21.698;2023-02-15T07:51:09;101532.46;;;3.84;83.40
50310;BME280;36207;51.850;21.698;2023-02-15T07:53:36;101532.66;;;3.83;83.44
50310;BME280;36207;51.850;21.698;2023-02-15T07:56:05;101530.95;;;3.83;83.29
50310;BME280;36207;51.850;21.698;2023-02-15T07:58:33;101530.66;;;3.81;83.21
50310;BME280;36207;51.850;21.698;2023-02-15T08:01:19;101527.77;;;3.80;83.64
50310;BME280;36207;51.850;21.698;2023-02-15T08:03:46;101532.31;;;3.75;83.28
50310;BME280;36207;51.850;21.698;2023-02-15T08:06:12;101528.89;;;3.70;83.32
50310;BME280;36207;51.850;21.698;2023-02-15T08:08:40;101527.13;;;3.65;83.41
50310;BME280;36207;51.850;21.698;2023-02-15T08:11:23;101528.83;;;3.61;83.38
50310;BME280;36207;51.850;21.698;2023-02-15T08:21:42;101523.96;;;3.48;83.62
50310;BME280;36207;51.850;21.698;2023-02-15T08:24:10;101522.36;;;3.49;83.59
50310;BME280;36207;51.850;21.698;2023-02-15T08:26:37;101523.36;;;3.50;83.68
50310;BME280;36207;51.850;21.698;2023-02-15T08:29:05;101525.64;;;3.55;83.80
50310;BME280;36207;51.850;21.698;2023-02-15T08:31:33;101525.24;;;3.56;83.59
50310;BME280;36207;51.850;21.698;2023-02-15T08:33:59;101529.09;;;3.53;83.70
50310;BME280;36207;51.850;21.698;2023-02-15T08:36:27;101528.14;;;3.49;83.51
50310;BME280;36207;51.850;21.698;2023-02-15T08:39:00;101520.80;;;3.48;83.64
50310;BME280;36207;51.850;21.698;2023-02-15T08:41:36;101520.67;;;3.47;83.72
50310;BME280;36207;51.850;21.698;2023-02-15T08:44:05;101521.75;;;3.47;83.67
50310;BME280;36207;51.850;21.698;2023-02-15T08:46:34;101518.66;;;3.51;83.70
50310;BME280;36207;51.850;21.698;2023-02-15T08:49:01;101513.84;;;3.55;83.66
50310;BME280;36207;51.850;21.698;2023-02-15T08:51:30;101510.81;;;3.59;83.61
50310;BME280;36207;51.850;21.698;2023-02-15T08:53:58;101513.25;;;3.62;83.69
50310;BME280;36207;51.850;21.698;2023-02-15T08:56:27;101515.98;;;3.61;83.66
50310;BME280;36207;51.850;21.698;2023-02-15T08:58:54;101513.52;;;3.61;83.53
50310;BME280;36207;51.850;21.698;2023-02-15T09:01:26;101512.86;;;3.60;83.55
50310;BME280;36207;51.850;21.698;2023-02-15T09:03:57;101514.48;;;3.56;83.52
50310;BME280;36207;51.850;21.698;2023-02-15T09:06:24;101515.16;;;3.51;83.65
50310;BME280;36207;51.850;21.698;2023-02-15T09:08:51;101512.23;;;3.48;83.58
50310;BME280;36207;51.850;21.698;2023-02-15T09:11:19;101514.77;;;3.44;83.50
50310;BME280;36207;51.850;21.698;2023-02-15T09:13:52;101514.13;;;3.43;83.54
50310;BME280;36207;51.850;21.698;2023-02-15T09:16:20;101513.44;;;3.45;83.69
50310;BME280;36207;51.850;21.698;2023-02-15T09:18:47;101514.02;;;3.50;83.79
50310;BME280;36207;51.850;21.698;2023-02-15T09:21:16;101512.83;;;3.52;83.67
50310;BME280;36207;51.850;21.698;2023-02-15T09:23:43;101513.72;;;3.49;83.55
50310;BME280;36207;51.850;21.698;2023-02-15T09:26:12;101514.62;;;3.46;83.57
50310;BME280;36207;51.850;21.698;2023-02-15T09:28:39;101517.29;;;3.48;83.68
50310;BME280;36207;51.850;21.698;2023-02-15T09:33:36;101512.08;;;3.52;83.66
50310;BME280;36207;51.850;21.698;2023-02-15T09:36:03;101509.60;;;3.55;83.52
50310;BME280;36207;51.850;21.698;2023-02-15T09:38:30;101509.75;;;3.59;83.67
50310;BME280;36207;51.850;21.698;2023-02-15T09:41:19;101511.42;;;3.63;83.58
50310;BME280;36207;51.850;21.698;2023-02-15T09:57:43;101500.30;;;3.58;83.19
50310;BME280;36207;51.850;21.698;2023-02-15T10:03:30;101496.77;;;3.61;83.19
50310;BME280;36207;51.850;21.698;2023-02-15T10:09:19;101491.48;;;3.61;83.33
50310;BME280;36207;51.850;21.698;2023-02-15T10:11:55;101491.41;;;3.65;83.51
50310;BME280;36207;51.850;21.698;2023-02-15T10:17:51;101479.95;;;3.73;83.43
50310;BME280;36207;51.850;21.698;2023-02-15T10:20:50;101478.00;;;3.73;83.52
50310;BME280;36207;51.850;21.698;2023-02-15T10:23:30;101476.76;;;3.76;83.46
50310;BME280;36207;51.850;21.698;2023-02-15T10:26:45;101472.36;;;3.76;83.48
50310;BME280;36207;51.850;21.698;2023-02-15T10:29:28;101474.34;;;3.75;83.38
50310;BME280;36207;51.850;21.698;2023-02-15T10:35:00;101470.16;;;3.77;83.19
50310;BME280;36207;51.850;21.698;2023-02-15T10:40:28;101469.08;;;3.67;83.21
50310;BME280;36207;51.850;21.698;2023-02-15T10:51:03;101461.84;;;3.37;83.13
50310;BME280;36207;51.850;21.698;2023-02-15T11:07:50;101450.94;;;3.14;83.57
50310;BME280;36207;51.850;21.698;2023-02-15T11:12:45;101444.86;;;3.30;84.12
50310;BME280;36207;51.850;21.698;2023-02-15T11:15:22;101439.13;;;3.31;83.92
50310;BME280;36207;51.850;21.698;2023-02-15T11:17:57;101436.89;;;3.33;83.77
50310;BME280;36207;51.850;21.698;2023-02-15T11:20:32;101434.84;;;3.35;83.76
50310;BME280;36207;51.850;21.698;2023-02-15T11:23:01;101430.14;;;3.43;83.83
50310;BME280;36207;51.850;21.698;2023-02-15T11:25:33;101430.41;;;3.47;83.74
50310;BME280;36207;51.850;21.698;2023-02-15T11:28:03;101424.56;;;3.47;83.71
50310;BME280;36207;51.850;21.698;2023-02-15T11:30:42;101425.33;;;3.49;83.67
50310;BME280;36207;51.850;21.698;2023-02-15T11:33:18;101425.69;;;3.49;83.81
50310;BME280;36207;51.850;21.698;2023-02-15T11:36:06;101425.77;;;3.42;83.38
50310;BME280;36207;51.850;21.698;2023-02-15T11:38:36;101423.20;;;3.35;83.29
50310;BME280;36207;51.850;21.698;2023-02-15T11:41:28;101422.72;;;3.32;83.28
50310;BME280;36207;51.850;21.698;2023-02-15T11:46:21;101417.06;;;3.27;83.43
50310;BME280;36207;51.850;21.698;2023-02-15T11:48:47;101415.23;;;3.23;83.37
50310;BME280;36207;51.850;21.698;2023-02-15T11:51:16;101412.23;;;3.28;83.68
50310;BME280;36207;51.850;21.698;2023-02-15T11:53:44;101412.07;;;3.33;83.60
50310;BME280;36207;51.850;21.698;2023-02-15T11:56:16;101406.79;;;3.33;83.65
50310;BME280;36207;51.850;21.698;2023-02-15T11:58:47;101406.98;;;3.35;83.65
50310;BME280;36207;51.850;21.698;2023-02-15T12:01:35;101402.34;;;3.42;83.72
50310;BME280;36207;51.850;21.698;2023-02-15T12:06:38;101398.05;;;3.41;83.54
50310;BME280;36207;51.850;21.698;2023-02-15T12:11:40;101400.40;;;3.45;83.58
50310;BME280;36207;51.850;21.698;2023-02-15T12:14:08;101394.78;;;3.50;83.59
50310;BME280;36207;51.850;21.698;2023-02-15T12:17:04;101389.57;;;3.60;83.71
50310;BME280;36207;51.850;21.698;2023-02-15T12:19:39;101385.25;;;3.70;83.83
50310;BME280;36207;51.850;21.698;2023-02-15T12:22:38;101387.29;;;3.71;83.51
50310;BME280;36207;51.850;21.698;2023-02-15T12:25:19;101384.16;;;3.65;83.31
50310;BME280;36207;51.850;21.698;2023-02-15T12:27:47;101378.94;;;3.55;83.17
50310;BME280;36207;51.850;21.698;2023-02-15T12:30:36;101375.92;;;3.53;83.22
50310;BME280;36207;51.850;21.698;2023-02-15T12:33:18;101375.65;;;3.52;83.38
50310;BME280;36207;51.850;21.698;2023-02-15T12:35:56;101370.84;;;3.53;83.47
50310;BME280;36207;51.850;21.698;2023-02-15T12:38:26;101370.95;;;3.56;83.58
50310;BME280;36207;51.850;21.698;2023-02-15T12:44:03;101357.90;;;3.60;83.65
50310;BME280;36207;51.850;21.698;2023-02-15T12:46:30;101356.47;;;3.63;83.59
50310;BME280;36207;51.850;21.698;2023-02-15T12:51:49;101360.53;;;3.57;83.29
50310;BME280;36207;51.850;21.698;2023-02-15T13:07:36;101351.77;;;3.08;83.52
50310;BME280;36207;51.850;21.698;2023-02-15T13:10:02;101345.05;;;3.03;83.55
50310;BME280;36207;51.850;21.698;2023-02-15T13:12:30;101340.63;;;2.98;83.55
50310;BME280;36207;51.850;21.698;2023-02-15T13:14:58;101341.12;;;2.98;83.56
50310;BME280;36207;51.850;21.698;2023-02-15T13:17:28;101343.00;;;2.96;83.68
50310;BME280;36207;51.850;21.698;2023-02-15T13:20:25;101343.98;;;2.92;83.62
50310;BME280;36207;51.850;21.698;2023-02-15T13:23:05;101340.84;;;2.89;83.58
50310;BME280;36207;51.850;21.698;2023-02-15T13:25:37;101341.59;;;2.96;83.82
50310;BME280;36207;51.850;21.698;2023-02-15T13:28:12;101336.81;;;3.02;83.88
50310;BME280;36207;51.850;21.698;2023-02-15T13:30:44;101331.73;;;3.07;83.77
50310;BME280;36207;51.850;21.698;2023-02-15T13:33:21;101325.33;;;3.14;83.89
50310;BME280;36207;51.850;21.698;2023-02-15T13:38:51;101326.95;;;3.24;83.96
50310;BME280;36207;51.850;21.698;2023-02-15T13:41:33;101324.65;;;3.27;84.03
50310;BME280;36207;51.850;21.698;2023-02-15T13:44:07;101327.12;;;3.27;84.00
50310;BME280;36207;51.850;21.698;2023-02-15T13:47:00;101322.61;;;3.26;83.87
50310;BME280;36207;51.850;21.698;2023-02-15T13:49:36;101321.23;;;3.28;83.82
50310;BME280;36207;51.850;21.698;2023-02-15T13:55:02;101320.16;;;3.42;83.90
50310;BME280;36207;51.850;21.698;2023-02-15T14:00:22;101320.88;;;3.49;83.65
50310;BME280;36207;51.850;21.698;2023-02-15T14:03:16;101317.77;;;3.54;83.73
50310;BME280;36207;51.850;21.698;2023-02-15T14:11:19;101312.11;;;3.65;83.70
50310;BME280;36207;51.850;21.698;2023-02-15T14:16:45;101303.54;;;3.61;83.22
50310;BME280;36207;51.850;21.698;2023-02-15T14:22:03;101305.87;;;3.40;83.07
50310;BME280;36207;51.850;21.698;2023-02-15T14:24:46;101302.33;;;3.37;83.15
50310;BME280;36207;51.850;21.698;2023-02-15T14:27:33;101297.91;;;3.29;83.07
50310;BME280;36207;51.850;21.698;2023-02-15T14:30:19;101297.66;;;3.23;83.04
50310;BME280;36207;51.850;21.698;2023-02-15T14:32:49;101292.13;;;3.18;82.99
50310;BME280;36207;51.850;21.698;2023-02-15T14:35:23;101290.38;;;3.12;83.13
50310;BME280;36207;51.850;21.698;2023-02-15T14:37:58;101288.84;;;3.07;83.22
50310;BME280;36207;51.850;21.698;2023-02-15T14:43:47;101287.45;;;2.93;83.14
50310;BME280;36207;51.850;21.698;2023-02-15T14:46:30;101286.57;;;2.93;83.24
50310;BME280;36207;51.850;21.698;2023-02-15T14:49:22;101284.88;;;2.86;83.15
50310;BME280;36207;51.850;21.698;2023-02-15T15:04:38;101268.50;;;3.13;83.08
50310;BME280;36207;51.850;21.698;2023-02-15T15:09:39;101258.46;;;3.03;83.12
50310;BME280;36207;51.850;21.698;2023-02-15T15:14:49;101256.15;;;2.98;82.99
50310;BME280;36207;51.850;21.698;2023-02-15T15:20:09;101258.71;;;3.04;83.38
50310;BME280;36207;51.850;21.698;2023-02-15T15:22:41;101257.83;;;3.07;83.39
50310;BME280;36207;51.850;21.698;2023-02-15T15:25:40;101256.15;;;3.06;83.25
50310;BME280;36207;51.850;21.698;2023-02-15T15:28:07;101257.89;;;3.04;83.33
50310;BME280;36207;51.850;21.698;2023-02-15T15:33:15;101257.58;;;2.95;83.08
50310;BME280;36207;51.850;21.698;2023-02-15T15:39:00;101260.57;;;2.89;83.10
50310;BME280;36207;51.850;21.698;2023-02-15T15:41:53;101261.55;;;2.85;83.12
50310;BME280;36207;51.850;21.698;2023-02-15T15:49:56;101258.48;;;2.78;83.08
50310;BME280;36207;51.850;21.698;2023-02-15T15:52:23;101259.11;;;2.82;83.07
50310;BME280;36207;51.850;21.698;2023-02-15T15:54:56;101252.75;;;2.83;83.07
50310;BME280;36207;51.850;21.698;2023-02-15T15:57:29;101250.71;;;2.81;83.03
50310;BME280;36207;51.850;21.698;2023-02-15T15:59:56;101252.64;;;2.84;83.01
50310;BME280;36207;51.850;21.698;2023-02-15T16:02:26;101248.95;;;2.84;83.07
50310;BME280;36207;51.850;21.698;2023-02-15T16:04:53;101246.94;;;2.82;83.04
50310;BME280;36207;51.850;21.698;2023-02-15T16:07:23;101243.84;;;2.84;83.07
50310;BME280;36207;51.850;21.698;2023-02-15T16:09:58;101239.95;;;2.90;83.07
50310;BME280;36207;51.850;21.698;2023-02-15T16:12:26;101237.98;;;2.93;82.98
50310;BME280;36207;51.850;21.698;2023-02-15T16:14:54;101237.90;;;2.92;82.94
50310;BME280;36207;51.850;21.698;2023-02-15T16:17:23;101234.95;;;2.88;82.86
50310;BME280;36207;51.850;21.698;2023-02-15T16:19:50;101234.11;;;2.88;82.95